Time;durP1;ratioP1;P1;durP2;ratioP2;P2;SDS_P1;SDS_P2;PMS_P1;PMS_P2;Temp;Humidity;BMP_temperature;BMP_pressure;BME280_temperature;BME280_humidity;BME280_pressure;Samples;Min_cycle;Max_cycle;Signal;HPM_P1;HPM_P2
2024/04/20 00:05:13;;;;;;;18.90;3.30;;;;;5.50;101254.00;;;;10358308;27;20741;-92
2024/04/20 00:10:27;;;;;;;9.47;2.17;;;;;5.60;101249.00;;;;10277165;27;20623;-91
2024/04/20 00:15:54;;;;;;;19.43;2.90;;;;;5.60;101267.00;;;;10337751;27;20273;-90
2024/04/20 00:21:11;;;;;;;14.67;2.50;;;;;5.70;101283.00;;;;10377926;27;20323;-89
2024/04/20 00:26:20;;;;;;;16.67;2.90;;;;;5.60;101276.00;;;;10491335;22;20358;-81
2024/04/20 00:31:21;;;;;;;18.63;3.00;;;;;5.60;101280.00;;;;10531915;27;20266;-82
2024/04/20 00:36:23;;;;;;;14.23;2.40;;;;;5.60;101277.00;;;;10503298;27;20257;-81
2024/04/20 00:41:24;;;;;;;18.50;3.13;;;;;5.60;101297.00;;;;10556622;27;20298;-81
2024/04/20 00:46:27;;;;;;;15.53;4.33;;;;;5.70;101287.00;;;;10566357;27;21066;-81
2024/04/20 00:51:29;;;;;;;9.30;2.33;;;;;5.70;101285.00;;;;10568822;27;20273;-82
2024/04/20 00:56:31;;;;;;;16.10;3.03;;;;;5.70;101284.00;;;;10516184;27;20264;-81
2024/04/20 01:01:33;;;;;;;13.57;2.80;;;;;5.70;101287.00;;;;10532297;27;20316;-82
2024/04/20 01:06:35;;;;;;;6.77;2.10;;;;;5.60;101282.00;;;;10581370;27;21010;-82
2024/04/20 01:11:37;;;;;;;16.83;3.10;;;;;5.50;101273.00;;;;10561879;27;20294;-82
2024/04/20 01:16:38;;;;;;;14.40;3.43;;;;;5.50;101283.00;;;;10550218;27;20266;-82
2024/04/20 01:21:40;;;;;;;14.23;2.50;;;;;5.50;101291.00;;;;10493949;27;20605;-82
2024/04/20 01:26:41;;;;;;;17.93;3.07;;;;;5.40;101292.00;;;;10528790;27;20305;-83
2024/04/20 01:31:43;;;;;;;15.17;2.87;;;;;5.50;101294.00;;;;10535289;27;20374;-82
2024/04/20 01:36:44;;;;;;;11.53;2.47;;;;;5.50;101300.00;;;;10512289;27;20265;-81
2024/04/20 01:41:48;;;;;;;17.03;2.33;;;;;5.30;101306.00;;;;10516989;27;20269;-84
2024/04/20 01:46:49;;;;;;;11.07;2.40;;;;;5.00;101306.00;;;;10513709;27;20295;-82
2024/04/20 01:51:51;;;;;;;14.37;2.67;;;;;4.90;101308.00;;;;10544317;27;20307;-81
2024/04/20 01:56:52;;;;;;;9.33;2.27;;;;;4.90;101304.00;;;;10534192;27;20292;-81
2024/04/20 02:01:57;;;;;;;12.40;3.10;;;;;4.90;101318.00;;;;10530094;27;20329;-82
2024/04/20 02:06:59;;;;;;;11.70;2.00;;;;;5.00;101316.00;;;;10554241;27;20744;-81
2024/04/20 02:12:01;;;;;;;9.53;1.80;;;;;5.00;101332.00;;;;10541422;27;20266;-80
2024/04/20 02:17:03;;;;;;;17.87;2.97;;;;;5.10;101327.00;;;;10579848;27;20261;-81
2024/04/20 02:22:04;;;;;;;14.73;2.10;;;;;5.20;101343.00;;;;10574078;27;20280;-80
2024/04/20 02:27:06;;;;;;;12.67;2.70;;;;;5.20;101342.00;;;;10593241;27;20635;-80
2024/04/20 02:32:07;;;;;;;15.50;2.87;;;;;5.10;101343.00;;;;10574412;27;20268;-81
2024/04/20 02:37:10;;;;;;;13.63;2.30;;;;;5.10;101346.00;;;;10631943;27;20295;-81
2024/04/20 02:42:12;;;;;;;10.87;2.70;;;;;5.10;101341.00;;;;10587277;27;20290;-77
2024/04/20 02:47:13;;;;;;;13.87;2.43;;;;;5.10;101345.00;;;;10599540;27;20268;-77
2024/04/20 02:52:15;;;;;;;13.80;2.07;;;;;5.10;101349.00;;;;10591450;27;20274;-78
2024/04/20 02:57:16;;;;;;;11.40;2.60;;;;;5.20;101351.00;;;;10570549;27;20316;-78
2024/04/20 03:02:18;;;;;;;11.93;2.20;;;;;5.10;101362.00;;;;10584910;27;20290;-77
2024/04/20 03:07:19;;;;;;;12.33;2.23;;;;;5.10;101361.00;;;;10593431;27;20263;-78
2024/04/20 03:12:21;;;;;;;9.63;1.90;;;;;5.10;101362.00;;;;10591435;27;21094;-79
2024/04/20 03:17:23;;;;;;;6.07;1.57;;;;;5.10;101371.00;;;;10606336;27;20264;-78
2024/04/20 03:22:24;;;;;;;12.70;2.33;;;;;5.10;101377.00;;;;10627987;27;20260;-77
2024/04/20 03:27:26;;;;;;;8.47;1.80;;;;;5.10;101372.00;;;;10559906;27;20389;-78
2024/04/20 03:32:27;;;;;;;10.47;1.80;;;;;5.00;101374.00;;;;10570152;27;20958;-78
2024/04/20 03:37:29;;;;;;;11.07;2.17;;;;;5.00;101381.00;;;;10565469;27;20264;-78
2024/04/20 03:42:30;;;;;;;10.23;2.33;;;;;4.90;101385.00;;;;10600989;27;20302;-77
2024/04/20 03:47:32;;;;;;;8.20;1.77;;;;;4.80;101391.00;;;;10585723;27;20359;-77
2024/04/20 03:52:33;;;;;;;9.43;2.03;;;;;4.80;101389.00;;;;10563543;27;20716;-81
2024/04/20 03:57:35;;;;;;;14.57;1.90;;;;;4.90;101391.00;;;;10575177;27;20260;-81
2024/04/20 04:02:36;;;;;;;14.73;1.87;;;;;4.90;101395.00;;;;10635556;27;20271;-80
2024/04/20 04:07:38;;;;;;;8.97;1.57;;;;;4.90;101398.00;;;;10580384;27;21034;-81
2024/04/20 04:12:39;;;;;;;11.23;2.03;;;;;4.90;101409.00;;;;10589104;27;20264;-80
2024/04/20 04:17:41;;;;;;;7.70;2.00;;;;;5.00;101407.00;;;;10593669;27;20267;-80
2024/04/20 04:22:42;;;;;;;12.20;1.87;;;;;5.00;101425.00;;;;10577491;27;20267;-80
2024/04/20 04:27:44;;;;;;;10.03;1.80;;;;;5.00;101421.00;;;;10618143;27;20268;-81
2024/04/20 04:32:45;;;;;;;8.13;2.10;;;;;5.00;101427.00;;;;10572149;27;20287;-80
2024/04/20 04:37:47;;;;;;;10.07;1.60;;;;;5.10;101442.00;;;;10606732;27;20264;-80
2024/04/20 04:42:48;;;;;;;12.43;2.40;;;;;5.10;101452.00;;;;10609805;27;20433;-81
2024/04/20 04:47:50;;;;;;;13.97;2.33;;;;;5.10;101455.00;;;;10599754;27;20318;-79
2024/04/20 04:52:51;;;;;;;12.50;2.13;;;;;5.00;101461.00;;;;10581788;27;20260;-81
2024/04/20 04:57:53;;;;;;;6.77;2.03;;;;;5.00;101471.00;;;;10599669;27;20267;-81
2024/04/20 05:02:54;;;;;;;14.03;2.20;;;;;5.00;101479.00;;;;10580644;27;20273;-80
2024/04/20 05:07:56;;;;;;;9.17;2.10;;;;;5.00;101489.00;;;;10604016;27;20858;-80
2024/04/20 05:12:59;;;;;;;10.27;2.07;;;;;4.90;101494.00;;;;10587383;27;20438;-79
2024/04/20 05:18:03;;;;;;;7.60;1.50;;;;;4.80;101497.00;;;;10625105;27;20267;-80
2024/04/20 05:23:05;;;;;;;11.30;1.97;;;;;4.70;101502.00;;;;10609433;27;20259;-80
2024/04/20 05:28:07;;;;;;;8.03;1.73;;;;;4.70;101508.00;;;;10617932;27;20297;-80
2024/04/20 05:33:08;;;;;;;10.97;2.03;;;;;4.60;101515.00;;;;10630814;27;20256;-80
2024/04/20 05:38:10;;;;;;;8.00;1.87;;;;;4.80;101522.00;;;;10591810;27;20317;-80
2024/04/20 05:43:11;;;;;;;18.20;1.97;;;;;5.10;101524.00;;;;10633606;27;20394;-80
2024/04/20 05:48:13;;;;;;;4.87;1.70;;;;;5.40;101528.00;;;;10585877;27;20294;-80
2024/04/20 05:53:14;;;;;;;10.17;2.20;;;;;5.70;101534.00;;;;10581131;27;20272;-80
2024/04/20 05:58:16;;;;;;;8.17;2.03;;;;;6.10;101547.00;;;;10594002;27;20260;-80
2024/04/20 06:03:17;;;;;;;10.20;2.10;;;;;6.90;101547.00;;;;10594906;27;20354;-80
2024/04/20 06:08:19;;;;;;;11.63;1.93;;;;;8.00;101553.00;;;;10568652;27;20267;-80
2024/04/20 06:13:21;;;;;;;6.77;2.37;;;;;8.20;101561.00;;;;10593170;27;20319;-81
2024/04/20 06:18:22;;;;;;;8.67;2.47;;;;;7.80;101569.00;;;;10613933;27;20778;-82
2024/04/20 06:23:24;;;;;;;11.13;1.83;;;;;7.80;101575.00;;;;10583729;27;20261;-81
2024/04/20 06:28:26;;;;;;;6.33;1.67;;;;;7.60;101581.00;;;;10575946;27;20282;-81
2024/04/20 06:33:29;;;;;;;10.80;2.00;;;;;7.60;101582.00;;;;10587855;27;20256;-81
2024/04/20 06:38:30;;;;;;;10.00;1.97;;;;;7.60;101592.00;;;;10601323;27;20265;-81
2024/04/20 06:43:32;;;;;;;8.73;2.17;;;;;7.50;101593.00;;;;10567116;27;20256;-82
2024/04/20 06:48:33;;;;;;;8.83;1.97;;;;;7.10;101593.00;;;;10602917;27;20320;-81
2024/04/20 06:53:35;;;;;;;10.20;1.53;;;;;6.90;101602.00;;;;10566347;27;20260;-81
2024/04/20 06:58:38;;;;;;;8.73;1.83;;;;;6.70;101618.00;;;;10569114;27;20264;-80
2024/04/20 07:03:41;;;;;;;10.50;2.33;;;;;7.20;101626.00;;;;10624484;27;20264;-81
2024/04/20 07:08:43;;;;;;;7.80;1.53;;;;;8.60;101618.00;;;;10602503;27;20266;-81
2024/04/20 07:13:46;;;;;;;8.93;1.70;;;;;9.60;101631.00;;;;10588686;27;20592;-81
2024/04/20 07:18:47;;;;;;;6.17;1.83;;;;;9.60;101632.00;;;;10585928;27;20351;-82
2024/04/20 07:23:49;;;;;;;6.17;1.70;;;;;10.00;101647.00;;;;10579275;27;20262;-77
2024/04/20 07:28:50;;;;;;;8.47;1.63;;;;;10.30;101639.00;;;;10572956;27;20328;-77
2024/04/20 07:33:52;;;;;;;8.07;1.87;;;;;10.10;101663.00;;;;10585090;27;20288;-77
2024/04/20 07:38:54;;;;;;;10.63;2.70;;;;;11.20;101653.00;;;;10595355;27;20252;-78
2024/04/20 07:43:56;;;;;;;11.53;2.07;;;;;12.60;101662.00;;;;10597549;27;20297;-78
2024/04/20 07:48:58;;;;;;;7.00;1.80;;;;;12.60;101679.00;;;;10584515;27;20260;-79
2024/04/20 07:53:59;;;;;;;10.90;1.57;;;;;11.80;101682.00;;;;10590557;27;20261;-78
2024/04/20 07:59:01;;;;;;;8.77;1.77;;;;;11.40;101695.00;;;;10594776;27;20950;-78
2024/04/20 08:04:03;;;;;;;9.50;1.50;;;;;10.30;101698.00;;;;10619376;27;20272;-78
2024/04/20 08:09:04;;;;;;;9.37;1.50;;;;;9.40;101705.00;;;;10593933;27;20259;-77
2024/04/20 08:14:06;;;;;;;12.07;1.63;;;;;9.30;101715.00;;;;10551379;27;20260;-77
2024/04/20 08:19:07;;;;;;;8.43;2.23;;;;;10.10;101719.00;;;;10574337;27;20298;-78
2024/04/20 08:24:09;;;;;;;5.57;1.40;;;;;11.00;101723.00;;;;10578147;27;20371;-77
2024/04/20 08:29:10;;;;;;;8.47;1.50;;;;;11.30;101729.00;;;;10563055;27;20259;-79
2024/04/20 08:34:12;;;;;;;7.37;1.70;;;;;10.70;101747.00;;;;10588072;27;20259;-84
2024/04/20 08:39:13;;;;;;;7.10;1.90;;;;;11.00;101746.00;;;;10600011;27;20307;-85
2024/04/20 08:44:19;;;;;;;4.07;1.77;;;;;11.20;101758.00;;;;10607347;27;20706;-83
2024/04/20 08:49:28;;;;;;;4.73;1.50;;;;;11.20;101757.00;;;;10598425;27;20282;-83
2024/04/20 08:54:31;;;;;;;9.10;1.40;;;;;11.30;101767.00;;;;10618041;27;20306;-84
2024/04/20 08:59:35;;;;;;;6.67;1.87;;;;;11.20;101774.00;;;;10623450;27;20264;-86
2024/04/20 09:04:36;;;;;;;6.70;1.90;;;;;11.40;101779.00;;;;10572636;27;20275;-85
2024/04/20 09:09:40;;;;;;;8.27;1.97;;;;;11.40;101772.00;;;;10597948;27;20635;-84
2024/04/20 09:14:41;;;;;;;7.23;1.40;;;;;11.50;101776.00;;;;10567369;27;20301;-84
2024/04/20 09:19:43;;;;;;;7.40;1.70;;;;;11.40;101784.00;;;;10608552;27;20275;-84
2024/04/20 09:24:44;;;;;;;11.73;1.90;;;;;11.10;101797.00;;;;10611925;27;20392;-83
2024/04/20 09:29:46;;;;;;;11.20;2.33;;;;;11.60;101801.00;;;;10575036;27;20338;-85
2024/04/20 09:34:48;;;;;;;9.80;2.50;;;;;11.50;101794.00;;;;10569636;27;20794;-85
2024/04/20 09:39:49;;;;;;;6.40;1.60;;;;;11.30;101813.00;;;;10580153;27;20618;-84
2024/04/20 09:44:53;;;;;;;6.50;1.53;;;;;10.10;101823.00;;;;10594856;27;20298;-81
2024/04/20 09:49:56;;;;;;;8.77;1.47;;;;;9.20;101804.00;;;;10544875;27;20362;-81
2024/04/20 09:55:32;;;;;;;9.17;1.50;;;;;8.90;101825.00;;;;10604021;27;20729;-80
2024/04/20 10:00:36;;;;;;;7.70;2.30;;;;;9.50;101835.00;;;;10558476;27;20306;-81
2024/04/20 10:05:39;;;;;;;7.77;1.60;;;;;10.90;101841.00;;;;10625028;27;20268;-81
2024/04/20 10:10:41;;;;;;;6.83;1.83;;;;;10.70;101846.00;;;;10570310;27;20295;-81
2024/04/20 10:15:46;;;;;;;12.37;3.00;;;;;9.50;101841.00;;;;10561909;27;20299;-81
2024/04/20 10:20:48;;;;;;;6.50;2.00;;;;;8.80;101836.00;;;;10571966;27;20256;-81
2024/04/20 10:25:53;;;;;;;15.00;2.30;;;;;8.80;101842.00;;;;10617201;27;20269;-81
2024/04/20 10:30:56;;;;;;;8.33;2.27;;;;;9.00;101850.00;;;;10615957;27;20330;-79
2024/04/20 10:36:00;;;;;;;7.03;1.97;;;;;9.50;101837.00;;;;10587256;27;20292;-80
2024/04/20 10:41:13;;;;;;;10.23;2.23;;;;;10.30;101828.00;;;;10630905;27;20264;-80
2024/04/20 10:46:20;;;;;;;9.77;2.23;;;;;11.00;101851.00;;;;10631158;27;20822;-79
2024/04/20 10:51:22;;;;;;;9.40;2.30;;;;;12.00;101842.00;;;;10538089;27;21168;-83
2024/04/20 10:56:27;;;;;;;11.43;2.40;;;;;12.70;101836.00;;;;10559607;27;20281;-80
2024/04/20 11:01:29;;;;;;;6.10;1.80;;;;;12.80;101834.00;;;;10589679;27;20350;-80
2024/04/20 11:06:31;;;;;;;16.73;2.97;;;;;13.90;101837.00;;;;10577803;27;20268;-80
2024/04/20 11:11:33;;;;;;;11.57;2.72;;;;;16.50;101842.00;;;;10597336;27;20268;-80
2024/04/20 11:16:35;;;;;;;10.05;2.38;;;;;15.00;101855.00;;;;10589019;27;20287;-80
2024/04/20 11:21:39;;;;;;;5.97;1.83;;;;;12.40;101884.00;;;;10622288;27;20256;-80
2024/04/20 11:26:42;;;;;;;9.43;2.93;;;;;10.50;101874.00;;;;10586328;27;20263;-80
2024/04/20 11:31:43;;;;;;;8.20;2.03;;;;;10.00;101853.00;;;;10559303;27;20272;-81
2024/04/20 11:36:45;;;;;;;11.37;2.10;;;;;10.40;101852.00;;;;10621640;27;20294;-80
2024/04/20 11:41:46;;;;;;;11.17;2.60;;;;;11.30;101849.00;;;;10580390;27;20260;-81
2024/04/20 11:46:48;;;;;;;14.47;2.70;;;;;11.90;101834.00;;;;10622471;27;20260;-80
2024/04/20 11:57:20;;;;;;;13.07;2.73;;;;;13.70;101837.00;;;;10599559;27;20303;-80
2024/04/20 12:02:22;;;;;;;8.17;1.93;;;;;13.10;101823.00;;;;10578800;27;20356;-84
2024/04/20 12:07:23;;;;;;;7.03;1.80;;;;;14.70;101812.00;;;;10574570;27;20308;-82
2024/04/20 12:12:25;;;;;;;9.70;2.23;;;;;13.50;101838.00;;;;10592414;27;20311;-84
2024/04/20 12:17:26;;;;;;;11.07;2.00;;;;;12.30;101830.00;;;;10571190;27;20588;-82
2024/04/20 12:22:30;;;;;;;5.57;1.63;;;;;15.60;101830.00;;;;10608719;27;20263;-84
2024/04/20 12:27:32;;;;;;;5.38;1.38;;;;;15.20;101836.00;;;;10586906;27;20259;-87
2024/04/20 12:32:33;;;;;;;6.35;1.85;;;;;14.40;101840.00;;;;10607046;27;21128;-85
2024/04/20 12:37:35;;;;;;;8.18;1.77;;;;;13.60;101839.00;;;;10583713;27;20299;-85
2024/04/20 12:42:37;;;;;;;7.82;2.05;;;;;13.20;101852.00;;;;10613415;27;20289;-84
2024/04/20 12:47:39;;;;;;;8.65;2.17;;;;;13.40;101845.00;;;;10603016;27;21059;-87
2024/04/20 12:52:40;;;;;;;10.47;1.60;;;;;13.70;101856.00;;;;10619919;27;20260;-83
2024/04/20 12:57:45;;;;;;;7.10;1.48;;;;;13.90;101833.00;;;;10634680;27;20291;-84
2024/04/20 13:02:46;;;;;;;6.13;2.03;;;;;14.00;101842.00;;;;10572535;27;20386;-83
2024/04/20 13:07:48;;;;;;;7.00;1.20;;;;;13.40;101829.00;;;;10589889;27;20279;-83
2024/04/20 13:12:49;;;;;;;14.30;1.60;;;;;12.50;101861.00;;;;10594768;27;20357;-78
2024/04/20 13:17:52;;;;;;;6.87;1.57;;;;;12.50;101859.00;;;;10573409;27;20264;-78
2024/04/20 13:22:54;;;;;;;8.23;1.50;;;;;12.70;101869.00;;;;10599499;27;20300;-78
2024/04/20 13:27:57;;;;;;;5.63;1.70;;;;;13.00;101869.00;;;;10628977;27;20268;-78
2024/04/20 13:32:58;;;;;;;6.93;1.53;;;;;13.20;101870.00;;;;10561046;27;20997;-79
2024/04/20 13:38:12;;;;;;;3.30;1.13;;;;;13.30;101860.00;;;;10595805;27;20269;-78
2024/04/20 13:43:13;;;;;;;4.50;1.60;;;;;13.30;101869.00;;;;10558646;27;20295;-79
2024/04/20 13:48:15;;;;;;;6.73;1.87;;;;;14.50;101862.00;;;;10570459;27;20275;-77
2024/04/20 13:53:17;;;;;;;6.28;1.60;;;;;14.10;101870.00;;;;10601752;27;21031;-78
2024/04/20 13:58:19;;;;;;;7.30;1.60;;;;;13.00;101874.00;;;;10589057;27;20689;-77
2024/04/20 14:03:20;;;;;;;6.17;1.87;;;;;12.80;101873.00;;;;10595627;27;20271;-79
2024/04/20 14:08:22;;;;;;;7.23;1.67;;;;;12.40;101858.00;;;;10605806;27;20356;-78
2024/04/20 14:13:23;;;;;;;5.10;1.50;;;;;11.90;101861.00;;;;10596402;27;20351;-78
2024/04/20 14:18:25;;;;;;;5.43;2.43;;;;;12.00;101861.00;;;;10612292;27;20274;-79
2024/04/20 14:23:27;;;;;;;8.97;1.20;;;;;12.30;101856.00;;;;10618183;27;20370;-77
2024/04/20 14:28:28;;;;;;;5.80;1.80;;;;;11.40;101870.00;;;;10606851;27;20310;-77
2024/04/20 14:33:32;;;;;;;5.13;2.37;;;;;11.10;101872.00;;;;10535454;27;20872;-78
2024/04/20 14:38:34;;;;;;;8.43;2.10;;;;;11.10;101877.00;;;;10565539;27;20290;-78
2024/04/20 14:43:35;;;;;;;5.00;1.00;;;;;10.60;101860.00;;;;10559563;27;20381;-81
2024/04/20 14:48:37;;;;;;;8.23;1.30;;;;;10.10;101860.00;;;;10582052;27;21146;-79
2024/04/20 14:53:41;;;;;;;4.17;1.57;;;;;10.00;101847.00;;;;10616413;27;20307;-78
2024/04/20 14:58:42;;;;;;;4.40;1.00;;;;;10.10;101837.00;;;;10563861;27;20277;-79
2024/04/20 15:03:44;;;;;;;3.67;1.10;;;;;10.20;101847.00;;;;10617758;27;20284;-78
2024/04/20 15:08:45;;;;;;;8.30;1.60;;;;;10.60;101845.00;;;;10588230;27;20303;-78
2024/04/20 15:13:47;;;;;;;3.13;1.00;;;;;11.40;101821.00;;;;10598865;27;20260;-80
2024/04/20 15:18:49;;;;;;;3.50;1.00;;;;;11.50;101824.00;;;;10569005;27;21485;-76
2024/04/20 15:23:52;;;;;;;6.27;2.47;;;;;11.00;101824.00;;;;10598805;27;20272;-77
2024/04/20 15:28:53;;;;;;;7.90;1.70;;;;;11.30;101836.00;;;;10610366;27;20275;-78
2024/04/20 15:33:55;;;;;;;2.40;0.73;;;;;10.50;101850.00;;;;10597805;27;20294;-81
2024/04/20 15:38:57;;;;;;;2.60;0.80;;;;;9.30;101848.00;;;;10590998;27;20604;-79
2024/04/20 15:43:58;;;;;;;6.03;1.20;;;;;8.80;101843.00;;;;10601549;27;20354;-81
2024/04/20 15:49:00;;;;;;;6.97;1.40;;;;;8.90;101844.00;;;;10625145;27;20260;-80
2024/04/20 15:54:02;;;;;;;4.37;0.93;;;;;9.30;101833.00;;;;10576622;27;20678;-80
2024/04/20 15:59:04;;;;;;;3.53;1.43;;;;;10.30;101833.00;;;;10569359;27;21146;-79
2024/04/20 16:04:05;;;;;;;8.87;1.77;;;;;11.00;101836.00;;;;10590799;27;20339;-80
2024/04/20 16:09:07;;;;;;;10.07;1.60;;;;;11.00;101841.00;;;;10525437;27;20779;-80
2024/04/20 16:14:15;;;;;;;10.33;1.40;;;;;10.20;101842.00;;;;10584484;27;20264;-80
2024/04/20 16:19:17;;;;;;;2.37;0.70;;;;;9.40;101819.00;;;;10595686;27;20298;-78
2024/04/20 16:24:19;;;;;;;4.37;1.07;;;;;8.90;101831.00;;;;10566366;27;20260;-79
2024/04/20 16:29:21;;;;;;;6.07;1.10;;;;;8.90;101836.00;;;;10560964;27;20265;-78
2024/04/20 16:34:22;;;;;;;3.70;1.10;;;;;9.30;101813.00;;;;10585378;27;20282;-79
2024/04/20 16:39:24;;;;;;;7.67;1.37;;;;;9.30;101815.00;;;;10575858;27;20264;-79
2024/04/20 16:44:25;;;;;;;7.80;1.37;;;;;9.00;101830.00;;;;10576266;27;20268;-83
2024/04/20 16:49:27;;;;;;;2.73;1.33;;;;;8.50;101829.00;;;;10636639;27;20740;-85
2024/04/20 16:54:28;;;;;;;5.13;1.40;;;;;8.90;101818.00;;;;10608598;27;20354;-84
2024/04/20 16:59:29;;;;;;;4.10;1.53;;;;;8.70;101821.00;;;;10576540;27;20373;-85
2024/04/20 17:04:31;;;;;;;3.90;1.27;;;;;9.00;101819.00;;;;10608432;27;20362;-87
2024/04/20 17:09:33;;;;;;;9.03;2.27;;;;;9.20;101809.00;;;;10598348;27;20358;-84
2024/04/20 17:14:34;;;;;;;8.50;1.80;;;;;9.20;101818.00;;;;10595108;27;21273;-87
2024/04/20 17:19:36;;;;;;;8.10;1.70;;;;;9.50;101805.00;;;;10574567;27;20303;-87
2024/04/20 17:24:37;;;;;;;10.40;2.00;;;;;9.00;101803.00;;;;10600481;27;20293;-87
2024/04/20 17:29:39;;;;;;;6.80;1.53;;;;;8.20;101814.00;;;;10615802;27;20272;-86
2024/04/20 17:34:41;;;;;;;9.73;2.27;;;;;7.70;101809.00;;;;10562374;27;20930;-86
2024/04/20 17:39:42;;;;;;;9.53;1.63;;;;;7.60;101811.00;;;;10576431;27;20256;-85
2024/04/20 17:44:44;;;;;;;6.80;1.97;;;;;8.00;101798.00;;;;10592959;27;20341;-86
2024/04/20 17:49:45;;;;;;;15.10;2.27;;;;;8.00;101795.00;;;;10589756;27;20328;-86
2024/04/20 17:54:47;;;;;;;6.70;1.87;;;;;7.80;101802.00;;;;10577977;27;20261;-81
2024/04/20 17:59:48;;;;;;;7.23;1.57;;;;;8.00;101818.00;;;;10557419;27;20264;-80
2024/04/20 18:04:52;;;;;;;3.83;1.10;;;;;8.20;101824.00;;;;10632410;27;20724;-80
2024/04/20 18:09:55;;;;;;;4.47;1.30;;;;;8.30;101828.00;;;;10627865;27;20264;-80
2024/04/20 18:14:57;;;;;;;10.97;2.03;;;;;8.00;101824.00;;;;10600965;27;20359;-80
2024/04/20 18:19:59;;;;;;;6.43;1.60;;;;;7.80;101827.00;;;;10585194;27;20374;-79
2024/04/20 18:25:02;;;;;;;6.67;1.73;;;;;7.60;101833.00;;;;10569113;27;20299;-80
2024/04/20 18:30:04;;;;;;;5.33;1.30;;;;;7.60;101839.00;;;;10565740;27;20272;-79
2024/04/20 18:35:05;;;;;;;6.27;1.63;;;;;7.50;101837.00;;;;10605608;27;20393;-80
2024/04/20 18:40:07;;;;;;;7.63;1.80;;;;;7.50;101847.00;;;;10600581;27;20260;-79
2024/04/20 18:45:09;;;;;;;7.87;1.80;;;;;7.40;101849.00;;;;10632173;27;20259;-80
2024/04/20 18:50:11;;;;;;;5.60;1.70;;;;;7.30;101847.00;;;;10594185;27;20323;-80
2024/04/20 18:55:12;;;;;;;9.53;2.57;;;;;7.20;101851.00;;;;10572745;27;20291;-80
2024/04/20 19:00:14;;;;;;;6.43;2.00;;;;;7.10;101858.00;;;;10561056;27;20269;-80
2024/04/20 19:05:15;;;;;;;9.17;1.53;;;;;7.10;101859.00;;;;10556146;27;20272;-79
2024/04/20 19:10:18;;;;;;;6.13;0.83;;;;;7.10;101849.00;;;;10551854;27;20296;-79
2024/04/20 19:15:20;;;;;;;4.13;1.40;;;;;7.10;101864.00;;;;10562852;27;20349;-79
2024/04/20 19:20:21;;;;;;;4.93;1.73;;;;;7.00;101877.00;;;;10544331;27;20264;-80
2024/04/20 19:25:23;;;;;;;5.03;1.37;;;;;7.00;101870.00;;;;10558095;27;20264;-80
2024/04/20 19:30:25;;;;;;;4.10;1.30;;;;;7.00;101880.00;;;;10617802;27;20412;-82
2024/04/20 19:35:26;;;;;;;7.47;1.80;;;;;6.90;101881.00;;;;10607323;27;20343;-80
2024/04/20 19:40:27;;;;;;;5.30;1.67;;;;;6.90;101878.00;;;;10587878;27;20268;-81
2024/04/20 19:45:32;;;;;;;9.47;2.33;;;;;6.80;101881.00;;;;10616572;27;20272;-80
2024/04/20 19:50:35;;;;;;;13.03;1.97;;;;;6.70;101896.00;;;;10570666;27;21106;-80
2024/04/20 19:55:37;;;;;;;9.83;1.80;;;;;6.60;101899.00;;;;10585924;27;20268;-81
2024/04/20 20:00:38;;;;;;;6.73;1.87;;;;;6.50;101894.00;;;;10565263;27;20358;-80
2024/04/20 20:05:40;;;;;;;11.40;2.27;;;;;6.40;101896.00;;;;10553038;27;20286;-81
2024/04/20 20:10:42;;;;;;;9.27;2.13;;;;;6.40;101910.00;;;;10576235;27;20297;-81
2024/04/20 20:15:46;;;;;;;6.60;1.90;;;;;6.40;101902.00;;;;10601814;27;20264;-80
2024/04/20 20:20:47;;;;;;;6.77;2.13;;;;;6.50;101913.00;;;;10617814;27;20307;-80
2024/04/20 20:25:49;;;;;;;7.63;1.63;;;;;6.40;101905.00;;;;10596281;27;20371;-80
2024/04/20 20:30:55;;;;;;;6.87;1.80;;;;;6.50;101908.00;;;;10580514;27;20268;-80
2024/04/20 20:35:59;;;;;;;10.33;2.50;;;;;6.50;101899.00;;;;10561815;27;20264;-81
2024/04/20 20:41:01;;;;;;;10.90;2.67;;;;;6.40;101904.00;;;;10561320;27;20295;-80
2024/04/20 20:46:04;;;;;;;9.97;2.40;;;;;6.40;101907.00;;;;10605569;27;20314;-80
2024/04/20 20:51:09;;;;;;;7.30;2.13;;;;;6.40;101900.00;;;;10610426;27;20295;-80
2024/04/20 20:56:10;;;;;;;4.20;1.30;;;;;6.20;101911.00;;;;10558183;27;20302;-81
2024/04/20 21:01:12;;;;;;;10.43;1.40;;;;;6.20;101904.00;;;;10565639;27;20379;-80
2024/04/20 21:06:16;;;;;;;4.33;1.37;;;;;6.20;101906.00;;;;10605566;27;20265;-80
2024/04/20 21:11:17;;;;;;;7.33;1.70;;;;;6.20;101918.00;;;;10586554;27;21127;-80
2024/04/20 21:16:19;;;;;;;8.27;2.00;;;;;6.20;101913.00;;;;10567398;27;20290;-80
2024/04/20 21:21:23;;;;;;;8.00;2.00;;;;;6.20;101911.00;;;;10615434;27;20279;-77
2024/04/20 21:26:29;;;;;;;5.67;1.70;;;;;6.30;101915.00;;;;10566058;27;20348;-81
2024/04/20 21:31:31;;;;;;;8.27;1.80;;;;;6.30;101909.00;;;;10616773;27;21162;-83
2024/04/20 21:36:35;;;;;;;12.83;1.90;;;;;6.30;101928.00;;;;10616252;27;20390;-82
2024/04/20 21:41:37;;;;;;;4.33;1.10;;;;;6.30;101924.00;;;;10622097;27;20302;-82
2024/04/20 21:46:38;;;;;;;7.40;1.50;;;;;6.30;101921.00;;;;10547772;27;20386;-82
2024/04/20 21:51:40;;;;;;;6.83;1.77;;;;;6.30;101925.00;;;;10628179;27;20276;-81
2024/04/20 21:56:43;;;;;;;9.67;1.87;;;;;6.30;101911.00;;;;10597692;27;20290;-83
2024/04/20 22:01:45;;;;;;;8.33;1.60;;;;;6.30;101901.00;;;;10563379;27;20276;-83
2024/04/20 22:06:46;;;;;;;4.67;1.33;;;;;6.20;101910.00;;;;10555825;27;20267;-83
2024/04/20 22:11:47;;;;;;;6.33;1.57;;;;;6.20;101905.00;;;;10571129;27;20290;-82
2024/04/20 22:16:49;;;;;;;10.17;2.17;;;;;6.20;101915.00;;;;10606618;27;20272;-83
2024/04/20 22:21:50;;;;;;;7.17;1.70;;;;;6.20;101909.00;;;;10607058;27;20326;-83
2024/04/20 22:26:52;;;;;;;8.93;2.00;;;;;6.10;101904.00;;;;10612387;27;20291;-83
2024/04/20 22:31:53;;;;;;;13.23;2.03;;;;;6.10;101910.00;;;;10600549;27;20265;-87
2024/04/20 22:36:55;;;;;;;5.63;1.97;;;;;6.10;101908.00;;;;10798303;22;20313;-85
2024/04/20 22:42:06;;;;;;;14.07;2.97;;;;;6.10;101907.00;;;;3548895;22;20590;-90
2024/04/20 22:47:07;;;;;;;11.17;2.20;;;;;6.10;101907.00;;;;10610729;22;20272;-86
2024/04/20 22:52:09;;;;;;;7.63;1.90;;;;;6.00;101902.00;;;;10574006;27;20346;-83
2024/04/20 22:57:11;;;;;;;10.10;2.10;;;;;5.40;101913.00;;;;10546966;27;20288;-85
2024/04/20 23:02:12;;;;;;;12.97;1.90;;;;;5.10;101898.00;;;;10526727;27;20284;-85
2024/04/20 23:07:14;;;;;;;6.60;2.07;;;;;4.80;101898.00;;;;10553268;27;20258;-85
2024/04/20 23:49:34;;;;;;;10.83;2.70;;;;;5.10;101869.00;;;;10490142;27;20769;-79
2024/04/20 23:54:36;;;;;;;11.20;2.33;;;;;5.10;101862.00;;;;10471900;27;21127;-78
2024/04/20 23:59:37;;;;;;;10.00;2.50;;;;;5.10;101864.00;;;;10464866;27;20340;-78
